Airfield :
LOGIN :

Register | Disclaimer

   EN    FR    IT 

 










Legend :    VFR   Marginal VFR   IFR   Intensive IFR   Very Intensive IFR
Visi :
Ceiling :
>= 8 km
>= 3000ft
5 to 8 km
1000 to 3000 ft
1500m to 5 km
500 to 1000 ft
800 to 1500m
200 to 500 ft
< 800m
< 200 ft
Symbols :   Thunderstorms  Fog  Heavy snow  Heavy precipitations  Wind > 20 kt
SIGMETs :     Misc.  Thunderstorms  Icing  Turbulence  Mountain Waves  Volcanic Ashes






- Airport Elevation : 187 ft


ETNW - Wunstorf AB

CURRENT METAR :
  • 050720Z VRB02KT 5000 BR FEW003 BKN100 16/15 Q1010 WHT WHT BECMG BLU

EXPIRED METARs :
  • 050620Z 00000KT 4300 BR FEW002 BKN120 15/15 Q1010 GRN GRN BECMG BLU
  • 050520Z 09003KT 4000 BR SCT120 BKN140 14/14 Q1010 GRN GRN BECMG BLU

TAF AMD TAF ETNW
Valid from the 05 at 05:00 until the 06 at 05:00 UTC


050520Z 0505/0605 10005KT 4000 MIFG SCT070 BKN120
BECMG 0505/0507 10005KT 9999 NSW SCT070 BKN120
PROB30 0505/0511 12010KT 5000 -SHRA FEW030 BKN060TCU
TEMPO 0511/0519 13010KT 4000 SHRA SCT020 BKN030TCU
PROB30 0512/0519 13015KT 2000 TSRA SCT015 BKN025CB
PROB30 0600/0605 VRB02KT 0500 FG VV001 BY ETGL



MET'MAP, your aeronautical weather chart ! - Copyright ORBIFLY December 2007 - Disclaimer

ORBIFLY MET'MAP TEAM :

Programming & Development : Alexandra Zaïnal
Concept & original design : Baudouin d'Aumeries
Assistance for programming : Marc-Olivier Méhu
Technical & hardware support : Manuel Goepfert

Contact : metmap@orbifly.com




SOURCES & CREDITS :

   NOAA